createdAt,value
2022-11-21T04:31:29.098Z,7.87
2022-11-21T04:32:29.116Z,7.84
2022-11-21T04:33:29.187Z,7.67
2022-11-21T04:34:29.318Z,7.75
2022-11-21T04:35:29.244Z,7.62
2022-11-21T04:36:29.389Z,7.53
2022-11-21T04:37:29.323Z,7.75
2022-11-21T04:38:29.413Z,7.71
2022-11-21T04:39:31.346Z,7.62
2022-11-21T04:40:52.551Z,7.66
2022-11-21T04:41:30.423Z,7.74
2022-11-21T04:42:29.556Z,7.69
2022-11-21T04:43:31.456Z,7.71
2022-11-21T04:44:29.956Z,7.71
2022-11-21T04:45:29.919Z,7.77
2022-11-21T04:46:29.748Z,7.67
2022-11-21T04:47:29.806Z,7.72
2022-11-21T04:48:29.812Z,7.77
2022-11-21T04:49:34.889Z,7.77
2022-11-21T04:50:30.887Z,7.81
2022-11-21T04:51:31.881Z,7.87
2022-11-21T04:52:33.910Z,7.85
2022-11-21T04:53:51.128Z,7.93
2022-11-21T04:54:33.375Z,7.87
2022-11-21T04:55:30.150Z,7.87
2022-11-21T04:56:31.890Z,7.87
2022-11-21T04:57:31.893Z,7.89
2022-11-21T04:58:41.074Z,7.94
2022-11-21T04:59:30.866Z,7.93
2022-11-21T05:00:30.429Z,7.89
2022-11-21T05:01:30.434Z,7.89
2022-11-21T05:02:30.435Z,7.92
2022-11-21T05:03:31.350Z,7.92
2022-11-21T05:04:31.375Z,7.87
2022-11-21T05:05:30.693Z,7.94
2022-11-21T05:06:30.626Z,7.90
2022-11-21T05:07:30.717Z,7.92
2022-11-21T05:08:31.857Z,7.93
2022-11-21T05:09:30.735Z,7.97
2022-11-21T05:10:31.352Z,7.97
2022-11-21T05:11:31.378Z,7.94
2022-11-21T05:12:30.867Z,7.94
2022-11-21T05:13:30.957Z,7.97
2022-11-21T05:14:30.948Z,8.07
2022-11-21T05:15:45.955Z,8.08
2022-11-21T05:16:31.152Z,8.08
2022-11-21T05:17:35.862Z,7.99
2022-11-21T05:18:33.844Z,8.12
2022-11-21T05:19:31.176Z,8.18
2022-11-21T05:20:35.758Z,8.18
2022-11-21T05:21:31.286Z,8.14
2022-11-21T05:22:32.380Z,8.12
2022-11-21T05:23:33.277Z,8.11
2022-11-21T05:24:31.518Z,8.15
2022-11-21T05:25:31.443Z,8.20
2022-11-21T05:26:32.366Z,8.15
2022-11-21T05:27:31.536Z,8.18
2022-11-21T05:28:31.571Z,8.15
2022-11-21T05:29:34.039Z,8.18
2022-11-21T05:30:52.695Z,8.14
2022-11-21T05:31:31.696Z,8.14
2022-11-21T05:32:34.096Z,8.17
2022-11-21T05:33:31.789Z,8.26
2022-11-21T05:34:31.888Z,8.20
2022-11-21T05:35:31.881Z,8.12
2022-11-21T05:36:33.358Z,8.21
2022-11-21T05:37:32.144Z,8.20
2022-11-21T05:38:32.962Z,8.10
2022-11-21T05:39:32.128Z,8.12
2022-11-21T05:40:32.095Z,8.17
2022-11-21T05:41:32.150Z,8.22
2022-11-21T05:42:32.209Z,8.21
2022-11-21T05:43:32.237Z,8.21
2022-11-21T05:44:32.310Z,8.18
2022-11-21T05:45:33.683Z,8.26
2022-11-21T05:46:32.367Z,8.26
2022-11-21T05:47:34.384Z,8.28
2022-11-21T05:48:32.496Z,8.22
2022-11-21T05:49:32.541Z,8.26
2022-11-21T05:50:32.538Z,8.21
2022-11-21T05:51:32.601Z,8.22
2022-11-21T05:52:32.634Z,8.20
2022-11-21T05:53:40.383Z,8.26
2022-11-21T05:54:32.841Z,8.25
2022-11-21T05:55:32.772Z,8.33
2022-11-21T05:56:33.380Z,8.21
2022-11-21T05:57:33.130Z,8.28
2022-11-21T05:58:32.902Z,8.18
2022-11-21T05:59:34.897Z,8.20
2022-11-21T06:00:32.998Z,8.26
2022-11-21T06:01:33.894Z,8.26
2022-11-21T06:02:33.078Z,8.18
2022-11-21T06:03:33.895Z,8.20
2022-11-21T06:04:33.169Z,8.11
2022-11-21T06:06:14.406Z,8.17
2022-11-21T06:06:46.142Z,8.15
2022-11-21T06:07:34.909Z,8.12
2022-11-21T06:10:18.070Z,8.28
2022-11-21T06:11:15.525Z,8.28
2022-11-21T06:12:21.405Z,8.20
2022-11-21T06:13:43.517Z,8.29
2022-11-21T06:14:15.437Z,8.22
2022-11-21T06:15:15.491Z,8.30
2022-11-21T06:16:22.438Z,8.15
2022-11-21T06:17:15.634Z,8.20
2022-11-21T07:44:14.459Z,7.79
2022-11-21T07:45:15.097Z,7.82
2022-11-21T07:46:14.527Z,7.82
2022-11-21T07:47:14.549Z,7.84
2022-11-21T07:48:14.596Z,7.84
2022-11-21T07:49:14.652Z,7.75
2022-11-21T07:50:19.777Z,7.81
2022-11-21T08:06:16.634Z,7.97
2022-11-21T08:06:49.635Z,7.89
2022-11-21T08:07:49.672Z,7.90
2022-11-21T08:08:50.243Z,7.87
2022-11-21T08:09:49.746Z,7.87
2022-11-21T08:10:49.834Z,7.82
2022-11-21T08:11:49.842Z,7.87
2022-11-21T08:12:49.882Z,7.94
2022-11-21T08:13:49.969Z,7.89
2022-11-21T08:14:49.963Z,7.96
2022-11-21T08:15:50.013Z,8.00
2022-11-21T08:16:50.722Z,8.08
2022-11-21T08:17:50.103Z,8.07
2022-11-21T08:18:50.175Z,8.10
2022-11-21T08:19:50.205Z,8.17
2022-11-21T08:20:50.262Z,8.26
2022-11-21T08:21:50.306Z,8.22
2022-11-21T08:22:51.219Z,8.32
2022-11-21T08:23:51.213Z,8.33
2022-11-21T08:24:50.414Z,8.30
2022-11-21T08:25:50.484Z,8.29
2022-11-21T08:26:50.529Z,8.29
2022-11-21T08:27:50.552Z,8.28
2022-11-21T08:28:52.377Z,8.25
2022-11-21T08:29:50.634Z,8.22
2022-11-21T08:30:51.215Z,8.29
2022-11-21T08:31:50.747Z,8.26
2022-11-21T08:32:50.769Z,8.25
2022-11-21T08:33:50.816Z,8.25
2022-11-21T08:34:50.882Z,8.10
2022-11-21T08:35:51.712Z,8.17
2022-11-21T08:36:50.948Z,8.10
2022-11-21T08:37:51.035Z,8.14
2022-11-21T08:38:51.044Z,8.10
2022-11-21T08:39:51.083Z,8.12
2022-11-21T08:40:51.129Z,8.12
2022-11-21T08:41:51.176Z,8.12
2022-11-21T08:42:51.269Z,8.11
2022-11-21T08:43:51.284Z,8.11
2022-11-21T08:44:51.301Z,8.12
2022-11-21T08:45:51.357Z,8.11
2022-11-21T08:46:51.400Z,8.15
2022-11-21T08:47:51.441Z,8.17
2022-11-21T08:48:51.548Z,8.15
2022-11-21T08:49:51.524Z,8.28
2022-11-21T08:50:51.573Z,8.26
2022-11-21T08:51:51.613Z,8.15
2022-11-21T08:52:51.670Z,8.22
2022-11-21T08:53:51.726Z,8.25
2022-11-21T08:54:51.757Z,8.25
2022-11-21T08:55:51.794Z,8.25
2022-11-21T08:56:51.842Z,8.32
2022-11-21T08:57:51.927Z,8.28
2022-11-21T08:58:51.941Z,8.28
2022-11-21T08:59:51.977Z,8.32
2022-11-21T09:00:52.033Z,8.30
2022-11-21T09:01:52.116Z,8.32
2022-11-21T09:02:52.157Z,8.33
2022-11-21T09:03:52.160Z,8.33
2022-11-21T09:04:52.204Z,8.36
2022-11-21T09:05:53.218Z,8.35
2022-11-21T09:06:52.297Z,8.35
2022-11-21T09:07:52.367Z,8.39
2022-11-21T09:08:52.400Z,8.32
2022-11-21T09:09:52.524Z,8.36
2022-11-21T09:10:52.496Z,8.26
2022-11-21T09:11:52.596Z,8.35
2022-11-21T09:12:52.681Z,8.44
2022-11-21T09:13:52.649Z,8.37
2022-11-21T09:14:52.714Z,8.37
2022-11-21T09:15:52.762Z,8.42
2022-11-21T09:16:53.562Z,8.40
2022-11-21T09:17:52.815Z,8.36
2022-11-21T09:18:52.879Z,8.39
2022-11-21T09:19:52.983Z,8.42
2022-11-21T09:20:52.976Z,8.42
2022-11-21T09:21:53.033Z,8.40
2022-11-21T09:22:53.076Z,8.44
2022-11-21T09:23:53.116Z,8.47
2022-11-21T09:24:53.212Z,8.42
2022-11-21T09:25:53.197Z,8.50
2022-11-21T09:26:53.234Z,8.50
2022-11-21T09:27:53.293Z,8.51
2022-11-21T09:28:53.411Z,8.60
2022-11-21T09:29:54.535Z,8.60
2022-11-21T09:30:53.441Z,8.62
2022-11-21T09:31:53.458Z,8.57
2022-11-21T09:32:53.507Z,8.66
2022-11-21T09:33:55.094Z,8.71
2022-11-21T09:34:53.607Z,8.81
2022-11-21T09:35:53.666Z,8.84
2022-11-21T09:36:53.760Z,8.97
2022-11-21T09:37:53.772Z,8.93
2022-11-21T09:38:53.826Z,8.90
2022-11-21T09:39:53.863Z,8.94
2022-11-21T09:40:54.771Z,8.91
2022-11-21T09:41:54.025Z,8.96
2022-11-21T09:42:53.967Z,8.93
2022-11-21T09:43:55.800Z,8.96
2022-11-21T09:44:54.075Z,9.02
2022-11-21T09:45:54.080Z,9.16
2022-11-21T09:46:54.181Z,9.13
2022-11-21T09:47:54.207Z,9.10
2022-11-21T09:48:54.307Z,9.13
2022-11-21T09:49:54.383Z,9.20
2022-11-21T09:50:54.435Z,9.23
2022-11-21T09:51:54.450Z,9.27
2022-11-21T09:52:54.448Z,9.28
2022-11-21T09:53:54.452Z,9.20
2022-11-21T09:54:54.553Z,9.27
2022-11-21T09:55:54.629Z,9.25
2022-11-21T09:56:54.645Z,9.13
2022-11-21T09:57:54.755Z,9.18
2022-11-21T09:58:54.810Z,9.02
2022-11-21T09:59:54.767Z,9.04
2022-11-21T10:00:54.895Z,8.93
2022-11-21T10:01:54.834Z,8.88
2022-11-21T10:02:54.909Z,8.96
2022-11-21T10:03:55.012Z,8.97
2022-11-21T10:04:55.008Z,9.06
2022-11-21T10:05:55.781Z,9.01
2022-11-21T10:06:55.042Z,9.02
2022-11-21T10:07:55.143Z,9.04
2022-11-21T10:08:55.235Z,9.18
2022-11-21T10:09:55.310Z,9.18
2022-11-21T10:10:55.291Z,9.18
2022-11-21T10:11:55.351Z,9.21
2022-11-21T10:12:55.368Z,9.21
2022-11-21T10:13:55.416Z,9.23
2022-11-21T10:14:55.532Z,9.16
2022-11-21T10:15:55.586Z,9.31
2022-11-21T10:16:55.556Z,9.34
2022-11-21T10:17:55.593Z,9.38
2022-11-21T10:18:55.623Z,9.35
2022-11-21T10:19:55.680Z,9.30
2022-11-21T10:20:55.724Z,9.58
2022-11-21T10:21:55.748Z,9.52
2022-11-21T10:22:55.797Z,9.73
2022-11-21T10:23:55.851Z,9.75
2022-11-21T10:24:55.918Z,9.85
2022-11-21T10:25:56.014Z,9.94
2022-11-21T10:26:55.968Z,9.94
2022-11-21T10:27:56.115Z,9.89
2022-11-21T10:28:56.078Z,10.07
2022-11-21T10:29:56.118Z,10.14
2022-11-21T10:30:56.229Z,10.25
2022-11-21T10:31:56.208Z,10.28
2022-11-21T10:32:56.286Z,10.28
2022-11-21T10:33:56.313Z,10.37
2022-11-21T10:34:56.355Z,10.46
2022-11-21T10:35:56.399Z,10.44
2022-11-21T10:36:56.448Z,10.52
2022-11-21T10:37:56.516Z,10.52
2022-11-21T10:38:56.560Z,10.60
2022-11-21T10:39:56.617Z,10.53
2022-11-21T10:40:56.634Z,10.51
2022-11-21T10:41:56.676Z,10.34
2022-11-21T10:42:56.733Z,10.24
2022-11-21T10:43:56.778Z,10.25
2022-11-21T10:44:56.839Z,10.28
2022-11-21T10:45:56.876Z,10.26
2022-11-21T10:46:56.913Z,10.21
2022-11-21T10:47:56.993Z,10.24
2022-11-21T10:48:57.005Z,10.39
2022-11-21T10:49:57.061Z,10.36
2022-11-21T10:50:57.128Z,10.40
2022-11-21T10:51:57.200Z,10.37
2022-11-21T10:52:57.297Z,10.40
2022-11-21T10:53:57.267Z,10.36
2022-11-21T10:54:57.354Z,10.52
2022-11-21T10:55:57.385Z,10.62
2022-11-21T10:56:57.509Z,10.63
2022-11-21T10:57:57.570Z,10.80
2022-11-21T10:58:57.548Z,10.78
2022-11-21T10:59:57.588Z,10.83
2022-11-21T11:00:57.749Z,10.74
2022-11-21T11:01:57.641Z,10.66
2022-11-21T11:02:57.736Z,10.70
2022-11-21T11:04:20.913Z,10.59
2022-11-21T11:04:58.138Z,10.62
2022-11-21T11:05:58.431Z,10.63
2022-11-21T11:06:57.865Z,10.55
2022-11-21T11:07:58.937Z,10.25
2022-11-21T11:08:58.844Z,10.25
2022-11-21T11:09:58.008Z,10.36
2022-11-21T11:10:58.058Z,10.47
2022-11-21T11:11:58.103Z,10.56
2022-11-21T11:13:01.598Z,10.65
2022-11-21T11:13:58.800Z,10.74
2022-11-21T11:14:58.242Z,10.84
2022-11-21T11:15:58.296Z,10.88
2022-11-21T11:16:58.350Z,10.76
2022-11-21T11:17:59.734Z,10.62
2022-11-21T11:18:58.608Z,10.68
2022-11-21T11:19:58.533Z,10.77
2022-11-21T11:20:59.267Z,10.74
2022-11-21T11:22:00.437Z,10.68
2022-11-21T11:22:58.669Z,10.74
2022-11-21T11:23:58.877Z,10.77
2022-11-21T11:25:01.001Z,10.71
2022-11-21T11:25:58.780Z,10.74
2022-11-21T11:26:58.851Z,10.83
2022-11-21T11:27:58.878Z,10.74
2022-11-21T11:28:58.932Z,10.70
2022-11-21T11:29:58.979Z,10.68
2022-11-21T11:30:59.215Z,10.62
2022-11-21T11:31:59.064Z,10.68
2022-11-21T11:32:59.102Z,10.63
2022-11-21T11:33:59.142Z,10.59
2022-11-21T11:34:59.191Z,10.56
2022-11-21T11:35:59.286Z,10.63
2022-11-21T11:36:59.289Z,10.56
2022-11-21T11:38:00.260Z,10.53
2022-11-21T11:38:59.438Z,10.65
2022-11-21T11:40:00.251Z,10.58
2022-11-21T11:40:59.546Z,10.59
2022-11-21T11:42:00.253Z,10.59
2022-11-21T11:42:59.561Z,10.77
2022-11-21T11:43:59.613Z,10.70
2022-11-21T11:44:59.687Z,10.73
2022-11-21T11:46:00.259Z,10.68
2022-11-21T11:46:59.765Z,10.77
2022-11-21T11:47:59.797Z,10.74
2022-11-21T11:49:29.712Z,10.77
2022-11-21T11:49:59.910Z,10.78
2022-11-21T11:51:00.747Z,10.88
2022-11-21T11:52:00.010Z,10.98
2022-11-21T11:53:00.032Z,10.94
2022-11-21T11:54:01.399Z,11.02
2022-11-21T11:55:00.802Z,10.96
2022-11-21T11:56:00.173Z,10.92
2022-11-21T11:57:00.249Z,10.92
2022-11-21T11:58:00.271Z,10.77
2022-11-21T11:59:00.369Z,10.77
2022-11-21T12:00:00.366Z,10.66
2022-11-21T12:01:01.254Z,10.59
2022-11-21T12:02:01.285Z,10.63
2022-11-21T12:03:00.562Z,10.60
2022-11-21T12:04:00.582Z,10.60
2022-11-21T12:05:01.250Z,10.53
2022-11-21T12:06:06.022Z,10.47
2022-11-21T12:09:01.791Z,10.62
2022-11-21T12:10:00.913Z,10.56
2022-11-21T12:11:01.072Z,10.65
2022-11-21T12:12:00.991Z,10.58
2022-11-21T12:13:01.058Z,10.40
2022-11-21T12:14:01.060Z,10.22
2022-11-21T12:15:01.150Z,10.26
2022-11-21T12:16:07.147Z,10.37
2022-11-21T12:17:01.759Z,10.42
2022-11-21T12:18:01.767Z,10.52
2022-11-21T12:19:01.806Z,10.47
2022-11-21T12:20:02.264Z,10.43
2022-11-21T12:21:01.391Z,10.51
2022-11-21T12:22:01.413Z,10.51
2022-11-21T12:23:01.459Z,10.56
2022-11-21T12:24:01.495Z,10.59
2022-11-21T12:25:01.543Z,10.59
2022-11-21T12:26:01.634Z,10.71
2022-11-21T12:27:01.651Z,10.63
2022-11-21T12:28:01.700Z,10.59
2022-11-21T12:29:01.742Z,10.71
2022-11-21T12:30:02.771Z,10.70
2022-11-21T12:31:01.855Z,10.74
2022-11-21T12:32:01.870Z,10.78
2022-11-21T12:33:07.884Z,10.77
2022-11-21T12:34:01.973Z,10.76
2022-11-21T12:35:02.018Z,10.76
2022-11-21T12:36:16.722Z,10.66
2022-11-21T12:37:02.760Z,10.59
2022-11-21T12:38:02.188Z,10.60
2022-11-21T12:39:02.237Z,10.59
2022-11-21T12:40:02.793Z,10.74
2022-11-21T12:41:03.280Z,10.71
2022-11-21T12:42:02.369Z,10.73
2022-11-21T12:43:02.397Z,10.59
2022-11-21T12:44:02.530Z,10.59
2022-11-21T12:45:02.494Z,10.52
2022-11-21T12:46:02.537Z,10.53
2022-11-21T12:47:02.570Z,10.37
2022-11-21T12:48:02.627Z,10.33
2022-11-21T12:49:02.700Z,10.32
2022-11-21T12:50:02.712Z,10.30
2022-11-21T12:51:02.799Z,10.44
2022-11-21T12:52:02.811Z,10.40
2022-11-21T12:53:02.852Z,10.43
2022-11-21T12:54:02.939Z,10.46
2022-11-21T12:55:02.965Z,10.60
2022-11-21T12:56:03.005Z,10.55
2022-11-21T12:57:03.044Z,10.55
2022-11-21T12:58:03.093Z,10.46
2022-11-21T12:59:03.166Z,10.55
2022-11-21T13:00:03.261Z,10.51
2022-11-21T13:01:04.345Z,10.63
2022-11-21T13:02:03.960Z,10.58
2022-11-21T20:18:19.280Z,6.97
2022-11-21T20:18:35.279Z,6.79
2022-11-21T20:19:35.315Z,6.89
2022-11-21T20:20:35.359Z,6.83
2022-11-21T20:21:35.395Z,6.90
2022-11-21T20:24:08.970Z,6.86
